createdAt,value
2023-03-13T00:00:16.218Z,0.48
2023-03-13T00:04:38.210Z,0.54
2023-03-13T00:08:40.472Z,0.62
2023-03-13T00:12:42.393Z,0.62
2023-03-13T00:16:44.693Z,0.67
2023-03-13T00:20:48.796Z,0.65
2023-03-13T00:24:51.299Z,0.63
2023-03-13T00:28:53.798Z,0.68
2023-03-13T00:32:55.906Z,0.67
2023-03-13T00:36:58.037Z,0.68
2023-03-13T00:41:14.595Z,0.66
2023-03-13T00:45:16.214Z,0.68
2023-03-13T00:49:18.177Z,0.73
2023-03-13T00:53:21.061Z,0.71
2023-03-13T00:57:23.054Z,0.65
2023-03-13T01:01:28.025Z,0.70
2023-03-13T01:05:30.041Z,0.70
2023-03-13T01:09:34.588Z,0.63
2023-03-13T01:13:36.939Z,0.77
2023-03-13T01:17:38.585Z,0.77
2023-03-13T01:21:43.156Z,0.81
2023-03-13T01:25:45.148Z,0.85
2023-03-13T01:29:47.572Z,0.94
2023-03-13T01:33:54.677Z,0.92
2023-03-13T01:37:56.737Z,0.98
2023-03-13T01:41:58.817Z,0.96
2023-03-13T01:46:05.719Z,0.98
2023-03-13T01:50:23.060Z,0.95
2023-03-13T01:54:36.171Z,0.86
2023-03-13T01:58:38.577Z,0.92
2023-03-13T02:02:46.794Z,0.94
2023-03-13T02:06:53.187Z,0.98
2023-03-13T02:11:14.368Z,1.01
2023-03-13T02:15:17.756Z,1.05
2023-03-13T02:19:42.819Z,1.10
2023-03-13T02:24:21.675Z,1.11
2023-03-13T02:28:33.671Z,1.17
2023-03-13T02:32:37.586Z,1.35
2023-03-13T02:36:40.472Z,1.48
2023-03-13T02:40:46.726Z,1.43
2023-03-13T02:44:50.995Z,1.59
2023-03-13T02:48:55.794Z,1.63
2023-03-13T02:53:03.744Z,1.59
2023-03-13T02:57:07.226Z,1.70
2023-03-13T03:01:09.492Z,1.68
2023-03-13T03:05:14.705Z,1.68
2023-03-13T03:09:18.222Z,1.70
2023-03-13T03:13:20.230Z,1.75
2023-03-13T03:17:22.477Z,1.73
2023-03-13T03:21:24.449Z,1.82
2023-03-13T03:25:27.221Z,1.85
2023-03-13T03:29:29.025Z,1.83
2023-03-13T03:33:32.356Z,1.86
2023-03-13T03:37:34.972Z,1.79
2023-03-13T03:41:38.535Z,1.88
2023-03-13T03:45:41.679Z,1.83
2023-03-13T03:49:44.283Z,1.92
2023-03-13T03:53:48.192Z,2.01
2023-03-13T03:57:50.705Z,1.86
2023-03-13T04:02:03.771Z,2.07
2023-03-13T04:06:07.422Z,1.98
2023-03-13T04:10:10.183Z,1.94
2023-03-13T04:14:18.251Z,2.01
2023-03-13T04:18:21.169Z,2.04
2023-03-13T04:22:23.373Z,2.11
2023-03-13T04:26:30.594Z,1.97
2023-03-13T04:30:34.454Z,2.04
2023-03-13T04:34:54.468Z,1.93
2023-03-13T04:39:11.329Z,1.94
2023-03-13T04:43:32.329Z,2.04
2023-03-13T04:48:06.421Z,1.94
2023-03-13T04:52:31.028Z,1.92
2023-03-13T04:56:45.422Z,2.06
2023-03-13T05:01:06.036Z,2.07
2023-03-13T05:05:28.495Z,2.14
2023-03-13T05:09:33.473Z,2.05
2023-03-13T05:13:53.008Z,2.04
2023-03-13T05:18:12.879Z,2.17
2023-03-13T05:22:24.137Z,2.18
2023-03-13T05:26:44.496Z,2.22
2023-03-13T05:31:15.609Z,2.17
2023-03-13T05:35:32.073Z,2.28
2023-03-13T05:39:57.362Z,2.32
2023-03-13T05:44:18.129Z,2.32
2023-03-13T05:48:38.459Z,2.47
2023-03-13T05:52:52.230Z,2.44
2023-03-13T05:57:23.709Z,2.60
2023-03-13T06:01:43.485Z,2.50
2023-03-13T06:06:08.451Z,2.55
2023-03-13T06:10:15.722Z,2.66
2023-03-13T06:14:17.877Z,2.65
2023-03-13T06:18:38.505Z,2.56
2023-03-13T06:22:41.008Z,2.73
2023-03-13T06:26:43.775Z,2.76
2023-03-13T06:30:45.923Z,2.92
2023-03-13T06:34:48.557Z,2.96
2023-03-13T06:38:51.207Z,2.79
2023-03-13T06:42:53.933Z,2.91
2023-03-13T06:46:55.891Z,2.81
2023-03-13T06:50:57.936Z,2.94
2023-03-13T06:55:01.012Z,3.10
2023-03-13T06:59:03.354Z,2.93
2023-03-13T07:03:05.563Z,3.01
2023-03-13T07:07:07.644Z,3.16
2023-03-13T07:11:11.942Z,3.18
2023-03-13T07:15:14.048Z,3.30
2023-03-13T07:19:16.402Z,3.32
2023-03-13T07:23:18.407Z,3.44
2023-03-13T07:27:21.290Z,3.44
2023-03-13T07:31:26.647Z,3.55
2023-03-13T07:35:28.630Z,3.59
2023-03-13T07:39:30.606Z,3.73
2023-03-13T07:43:32.947Z,3.86
2023-03-13T07:47:35.714Z,3.92
2023-03-13T07:51:43.978Z,4.02
2023-03-13T07:56:00.071Z,4.26
2023-03-13T08:00:02.120Z,4.41
2023-03-13T08:04:14.524Z,4.68
2023-03-13T08:08:16.642Z,4.87
2023-03-13T08:12:18.616Z,4.86
2023-03-13T08:16:28.871Z,5.01
2023-03-13T08:20:30.922Z,5.04
2023-03-13T08:24:32.854Z,5.01
2023-03-13T08:28:36.331Z,5.09
2023-03-13T08:32:38.215Z,5.34
2023-03-13T08:36:41.339Z,5.19
2023-03-13T08:40:43.332Z,5.56
2023-03-13T08:44:45.378Z,5.59
2023-03-13T08:48:55.064Z,5.87
2023-03-13T08:52:57.225Z,5.92
2023-03-13T08:57:00.024Z,6.04
2023-03-13T09:01:03.983Z,6.31
2023-03-13T09:05:06.570Z,6.51
2023-03-13T09:09:10.358Z,6.82
2023-03-13T09:13:13.341Z,7.25
2023-03-13T09:17:15.081Z,7.61
2023-03-13T09:21:22.342Z,7.98
2023-03-13T09:25:24.429Z,8.39
2023-03-13T09:29:26.438Z,8.54
2023-03-13T09:33:28.406Z,8.71
2023-03-13T09:37:30.426Z,8.84
2023-03-13T09:41:40.468Z,9.28
2023-03-13T09:45:46.971Z,9.57
2023-03-13T09:50:03.162Z,9.67
2023-03-13T09:54:19.624Z,9.65
2023-03-13T09:58:24.574Z,9.99
2023-03-13T10:02:47.602Z,9.85
2023-03-13T10:06:49.710Z,9.96
2023-03-13T10:11:02.056Z,10.51
2023-03-13T10:15:10.753Z,10.47
2023-03-13T10:19:16.703Z,10.42
2023-03-13T10:23:43.587Z,10.80
2023-03-13T10:27:51.000Z,10.99
2023-03-13T10:32:01.534Z,10.77
2023-03-13T10:36:09.816Z,10.88
2023-03-13T10:40:25.303Z,10.71
2023-03-13T10:44:33.302Z,10.52
2023-03-13T10:48:37.406Z,10.41
2023-03-13T10:52:45.820Z,10.51
2023-03-13T10:56:48.209Z,10.59
2023-03-13T11:00:50.349Z,10.55
2023-03-13T11:04:54.960Z,10.71
2023-03-13T11:09:04.520Z,10.91
2023-03-13T11:13:06.579Z,10.77
2023-03-13T11:17:24.555Z,10.81
2023-03-13T11:22:11.993Z,10.90
2023-03-13T11:26:27.326Z,11.16
2023-03-13T11:30:47.853Z,11.41
2023-03-13T11:34:57.388Z,11.68
2023-03-13T11:39:23.642Z,12.01
2023-03-13T11:43:55.271Z,12.45
2023-03-13T11:48:18.422Z,12.29
2023-03-13T11:52:52.619Z,12.62
2023-03-13T11:57:03.189Z,12.45
2023-03-13T12:01:11.454Z,12.44
2023-03-13T12:05:18.073Z,12.13
2023-03-13T12:09:33.138Z,12.12
2023-03-13T12:13:41.740Z,11.95
2023-03-13T12:17:50.664Z,12.01
2023-03-13T12:21:57.212Z,12.31
2023-03-13T12:26:10.836Z,12.42
2023-03-13T12:30:39.061Z,12.24
2023-03-13T12:34:53.053Z,12.20
2023-03-13T12:39:01.021Z,12.06
2023-03-13T12:43:10.562Z,11.95
2023-03-13T12:47:21.447Z,11.78
2023-03-13T12:51:29.758Z,11.65
2023-03-13T12:55:52.630Z,11.62
2023-03-13T13:00:00.102Z,11.53
2023-03-13T13:04:07.904Z,11.27
2023-03-13T13:08:24.741Z,11.28
2023-03-13T13:12:27.280Z,11.10
2023-03-13T13:16:31.196Z,11.03
2023-03-13T13:20:34.903Z,10.90
2023-03-13T13:24:48.778Z,10.82
2023-03-13T13:28:51.008Z,10.67
2023-03-13T13:33:16.806Z,10.50
2023-03-13T13:37:21.852Z,10.45
2023-03-13T13:41:33.124Z,10.45
2023-03-13T13:45:39.190Z,10.47
2023-03-13T13:49:54.673Z,10.28
2023-03-13T13:54:04.168Z,10.23
2023-03-13T13:58:12.841Z,10.15
2023-03-13T14:02:17.767Z,10.00
2023-03-13T14:06:24.643Z,9.91
2023-03-13T14:10:36.061Z,9.77
2023-03-13T14:14:38.264Z,9.75
2023-03-13T14:18:41.902Z,9.70
2023-03-13T14:22:49.122Z,9.69
2023-03-13T14:26:51.198Z,9.70
2023-03-13T14:30:56.677Z,9.63
2023-03-13T14:34:58.832Z,9.68
2023-03-13T14:39:01.194Z,9.64
2023-03-13T14:43:04.517Z,9.58
2023-03-13T14:47:09.344Z,9.77
2023-03-13T14:51:20.762Z,9.84
2023-03-13T14:55:22.687Z,9.79
2023-03-13T14:59:28.325Z,9.76
2023-03-13T15:03:32.757Z,9.68
2023-03-13T15:07:40.638Z,9.71
2023-03-13T15:11:54.865Z,9.62
2023-03-13T15:15:57.203Z,9.46
2023-03-13T15:19:59.631Z,9.44
2023-03-13T15:24:10.144Z,9.21
2023-03-13T15:28:18.004Z,9.33
2023-03-13T15:32:27.615Z,9.25
2023-03-13T15:36:31.492Z,9.22
2023-03-13T15:40:33.703Z,9.25
2023-03-13T15:44:35.702Z,9.13
2023-03-13T15:48:38.208Z,9.18
2023-03-13T15:52:40.592Z,9.20
2023-03-13T15:56:42.789Z,9.05
2023-03-13T16:00:45.816Z,9.16
2023-03-13T16:04:48.465Z,9.13
2023-03-13T16:08:50.449Z,9.19
2023-03-13T16:12:53.192Z,9.32
2023-03-13T16:16:55.284Z,9.26
2023-03-13T16:20:57.379Z,9.28
2023-03-13T16:24:59.285Z,9.19
2023-03-13T16:29:01.678Z,9.38
2023-03-13T16:33:03.862Z,9.31
2023-03-13T16:37:14.209Z,9.23
2023-03-13T16:41:21.983Z,9.25
2023-03-13T16:45:24.362Z,9.25
2023-03-13T16:49:26.433Z,9.26
2023-03-13T16:53:28.533Z,9.26
2023-03-13T16:57:30.562Z,9.34
2023-03-13T17:01:33.594Z,9.45
2023-03-13T17:05:35.791Z,9.37
2023-03-13T17:09:37.946Z,9.41
2023-03-13T17:13:39.905Z,9.46
2023-03-13T17:17:44.249Z,9.38
2023-03-13T17:21:47.037Z,9.51
2023-03-13T17:25:49.031Z,9.42
2023-03-13T17:29:51.012Z,9.41
2023-03-13T17:33:53.219Z,9.51
2023-03-13T17:37:55.176Z,9.66
2023-03-13T17:41:57.995Z,9.82
2023-03-13T17:45:59.964Z,9.88
2023-03-13T17:50:01.955Z,9.86
2023-03-13T17:54:04.873Z,9.93
2023-03-13T17:58:06.975Z,9.88
2023-03-13T18:02:11.694Z,10.00
2023-03-13T18:06:22.064Z,9.99
2023-03-13T18:10:26.675Z,10.10
2023-03-13T18:14:28.654Z,10.14
2023-03-13T18:18:31.045Z,10.20
2023-03-13T18:22:32.984Z,10.21
2023-03-13T18:26:37.774Z,10.27
2023-03-13T18:30:39.973Z,10.48
2023-03-13T18:34:42.593Z,10.34
2023-03-13T18:38:48.902Z,10.38
2023-03-13T18:42:51.866Z,10.31
2023-03-13T18:46:53.899Z,10.33
2023-03-13T18:50:55.598Z,10.37
2023-03-13T18:54:57.519Z,10.43
2023-03-13T18:59:00.367Z,10.23
2023-03-13T19:03:02.439Z,10.39
2023-03-13T19:07:11.810Z,10.49
2023-03-13T19:11:14.803Z,10.49
2023-03-13T19:15:17.611Z,10.45
2023-03-13T19:19:21.817Z,10.50
2023-03-13T19:23:23.763Z,10.52
2023-03-13T19:27:25.943Z,10.48
2023-03-13T19:31:28.060Z,10.33
2023-03-13T19:35:30.231Z,10.35
2023-03-13T19:39:32.272Z,10.25
2023-03-13T19:43:34.331Z,10.26
2023-03-13T19:47:36.569Z,10.27
2023-03-13T19:51:39.080Z,10.32
2023-03-13T19:55:41.059Z,10.41
2023-03-13T19:59:43.112Z,10.47
2023-03-13T20:03:46.369Z,10.40
2023-03-13T20:07:48.796Z,10.52
2023-03-13T20:11:51.049Z,10.56
2023-03-13T20:15:53.204Z,10.54
2023-03-13T20:19:55.305Z,10.57
2023-03-13T20:23:58.728Z,10.62
2023-03-13T20:28:00.679Z,10.73
2023-03-13T20:32:04.659Z,10.85
2023-03-13T20:36:10.584Z,10.71
2023-03-13T20:40:13.044Z,10.69
2023-03-13T20:44:15.191Z,10.65
2023-03-13T20:48:17.680Z,10.64
2023-03-13T20:52:19.664Z,10.73
2023-03-13T20:56:22.223Z,10.64
2023-03-13T21:00:24.646Z,10.63
2023-03-13T21:04:26.753Z,10.66
2023-03-13T21:08:28.731Z,10.56
2023-03-13T21:12:30.669Z,10.67
2023-03-13T21:16:32.743Z,10.76
2023-03-13T21:20:34.836Z,10.82
2023-03-13T21:24:36.907Z,10.78
2023-03-13T21:28:40.019Z,10.62
2023-03-13T21:32:42.253Z,10.57
2023-03-13T21:36:44.236Z,10.60
2023-03-13T21:40:46.230Z,10.66
2023-03-13T21:44:48.362Z,10.72
2023-03-13T21:48:50.336Z,10.71
2023-03-13T21:52:52.574Z,10.73
2023-03-13T21:56:54.650Z,10.56
2023-03-13T22:00:57.654Z,10.62
2023-03-13T22:04:59.690Z,10.62
2023-03-13T22:09:03.740Z,10.63
2023-03-13T22:13:07.589Z,10.56
2023-03-13T22:17:16.632Z,10.64
2023-03-13T22:21:19.374Z,10.50
2023-03-13T22:25:21.437Z,10.47
2023-03-13T22:29:24.054Z,10.58
2023-03-13T22:33:26.205Z,10.51
2023-03-13T22:37:28.152Z,10.51
2023-03-13T22:41:30.125Z,10.45
2023-03-13T22:45:34.009Z,10.53
2023-03-13T22:49:36.028Z,10.58
2023-03-13T22:53:40.040Z,10.49
2023-03-13T22:57:42.021Z,10.66
2023-03-13T23:01:44.106Z,10.57
2023-03-13T23:05:47.620Z,10.57
2023-03-13T23:09:49.647Z,10.46
2023-03-13T23:13:51.671Z,10.38
2023-03-13T23:17:53.859Z,10.25
2023-03-13T23:21:55.793Z,10.39
2023-03-13T23:26:02.540Z,10.41
2023-03-13T23:30:06.467Z,10.27
2023-03-13T23:34:08.444Z,10.25
2023-03-13T23:38:12.153Z,10.18
2023-03-13T23:42:14.198Z,10.03
2023-03-13T23:46:18.495Z,9.85
2023-03-13T23:50:20.947Z,9.90
2023-03-13T23:54:23.327Z,9.78
2023-03-13T23:58:25.434Z,9.63
